sensor_id;sensor_type;location;lat;lon;timestamp;temperature;humidity
33739;DHT22;20063;51.730;11.110;2023-04-03T00:01:13;1.40;99.90
33739;DHT22;20063;51.730;11.110;2023-04-03T00:03:39;1.30;99.90
33739;DHT22;20063;51.730;11.110;2023-04-03T00:06:06;1.30;99.90
33739;DHT22;20063;51.730;11.110;2023-04-03T00:08:34;1.20;99.90
33739;DHT22;20063;51.730;11.110;2023-04-03T00:11:00;1.20;99.90
33739;DHT22;20063;51.730;11.110;2023-04-03T00:13:26;1.20;99.90
33739;DHT22;20063;51.730;11.110;2023-04-03T00:15:52;1.20;99.90
33739;DHT22;20063;51.730;11.110;2023-04-03T00:18:18;1.10;99.90
33739;DHT22;20063;51.730;11.110;2023-04-03T00:20:44;1.10;99.90
33739;DHT22;20063;51.730;11.110;2023-04-03T00:23:09;1.10;99.90
33739;DHT22;20063;51.730;11.110;2023-04-03T00:25:36;1.10;99.90
33739;DHT22;20063;51.730;11.110;2023-04-03T00:28:02;1.00;99.90
33739;DHT22;20063;51.730;11.110;2023-04-03T00:30:28;1.00;99.90
33739;DHT22;20063;51.730;11.110;2023-04-03T00:32:56;1.00;99.90
33739;DHT22;20063;51.730;11.110;2023-04-03T00:35:23;0.90;99.90
33739;DHT22;20063;51.730;11.110;2023-04-03T00:37:53;0.90;99.90
33739;DHT22;20063;51.730;11.110;2023-04-03T00:40:22;0.90;99.90
33739;DHT22;20063;51.730;11.110;2023-04-03T00:42:49;0.90;99.90
33739;DHT22;20063;51.730;11.110;2023-04-03T00:45:36;0.80;99.90
33739;DHT22;20063;51.730;11.110;2023-04-03T00:48:04;0.80;99.90
33739;DHT22;20063;51.730;11.110;2023-04-03T00:50:32;0.80;99.90
33739;DHT22;20063;51.730;11.110;2023-04-03T00:52:59;0.90;99.90
33739;DHT22;20063;51.730;11.110;2023-04-03T00:55:25;0.90;99.90
33739;DHT22;20063;51.730;11.110;2023-04-03T00:57:52;0.80;99.90
33739;DHT22;20063;51.730;11.110;2023-04-03T01:00:20;0.90;99.90
33739;DHT22;20063;51.730;11.110;2023-04-03T01:02:47;0.90;99.90
33739;DHT22;20063;51.730;11.110;2023-04-03T01:05:15;0.90;99.90
33739;DHT22;20063;51.730;11.110;2023-04-03T01:07:42;1.00;99.90
33739;DHT22;20063;51.730;11.110;2023-04-03T01:10:12;1.00;99.90
33739;DHT22;20063;51.730;11.110;2023-04-03T01:12:42;1.00;99.90
33739;DHT22;20063;51.730;11.110;2023-04-03T01:15:12;1.00;99.90
33739;DHT22;20063;51.730;11.110;2023-04-03T01:25:15;1.00;99.90
33739;DHT22;20063;51.730;11.110;2023-04-03T01:27:41;1.00;99.90
33739;DHT22;20063;51.730;11.110;2023-04-03T01:30:07;1.00;99.90
33739;DHT22;20063;51.730;11.110;2023-04-03T01:32:33;1.00;99.90
33739;DHT22;20063;51.730;11.110;2023-04-03T01:34:59;1.00;99.90
33739;DHT22;20063;51.730;11.110;2023-04-03T01:37:24;1.00;99.90
33739;DHT22;20063;51.730;11.110;2023-04-03T01:39:50;0.90;99.90
33739;DHT22;20063;51.730;11.110;2023-04-03T01:42:15;0.90;99.90
33739;DHT22;20063;51.730;11.110;2023-04-03T01:44:41;0.90;99.90
33739;DHT22;20063;51.730;11.110;2023-04-03T01:47:07;0.90;99.90
33739;DHT22;20063;51.730;11.110;2023-04-03T01:49:32;0.90;99.90
33739;DHT22;20063;51.730;11.110;2023-04-03T01:51:59;1.00;99.90
33739;DHT22;20063;51.730;11.110;2023-04-03T01:54:25;0.90;99.90
33739;DHT22;20063;51.730;11.110;2023-04-03T01:56:50;1.00;99.90
33739;DHT22;20063;51.730;11.110;2023-04-03T01:59:16;0.90;99.90
33739;DHT22;20063;51.730;11.110;2023-04-03T02:01:43;0.80;99.90
33739;DHT22;20063;51.730;11.110;2023-04-03T02:04:11;0.80;99.90
33739;DHT22;20063;51.730;11.110;2023-04-03T02:06:38;0.80;99.90
33739;DHT22;20063;51.730;11.110;2023-04-03T02:09:04;0.80;99.90
33739;DHT22;20063;51.730;11.110;2023-04-03T02:11:30;0.80;99.90
33739;DHT22;20063;51.730;11.110;2023-04-03T02:13:55;0.80;99.90
33739;DHT22;20063;51.730;11.110;2023-04-03T02:16:21;0.80;99.90
33739;DHT22;20063;51.730;11.110;2023-04-03T02:18:46;0.80;99.90
33739;DHT22;20063;51.730;11.110;2023-04-03T02:21:13;0.80;99.90
33739;DHT22;20063;51.730;11.110;2023-04-03T02:23:38;0.70;99.90
33739;DHT22;20063;51.730;11.110;2023-04-03T02:26:09;0.70;99.90
33739;DHT22;20063;51.730;11.110;2023-04-03T02:28:36;0.70;99.90
33739;DHT22;20063;51.730;11.110;2023-04-03T02:31:02;0.70;99.90
33739;DHT22;20063;51.730;11.110;2023-04-03T02:33:28;0.70;99.90
33739;DHT22;20063;51.730;11.110;2023-04-03T02:35:54;0.70;99.90
33739;DHT22;20063;51.730;11.110;2023-04-03T02:38:21;0.60;99.90
33739;DHT22;20063;51.730;11.110;2023-04-03T02:40:47;0.60;99.90
33739;DHT22;20063;51.730;11.110;2023-04-03T02:43:12;0.60;99.90
33739;DHT22;20063;51.730;11.110;2023-04-03T02:45:38;0.60;99.90
33739;DHT22;20063;51.730;11.110;2023-04-03T02:48:04;0.60;99.90
33739;DHT22;20063;51.730;11.110;2023-04-03T02:50:29;0.60;99.90
33739;DHT22;20063;51.730;11.110;2023-04-03T02:52:55;0.50;99.90
33739;DHT22;20063;51.730;11.110;2023-04-03T02:55:21;0.50;99.90
33739;DHT22;20063;51.730;11.110;2023-04-03T02:57:47;0.40;99.90
33739;DHT22;20063;51.730;11.110;2023-04-03T03:00:13;0.40;99.90
33739;DHT22;20063;51.730;11.110;2023-04-03T03:02:39;0.40;99.90
33739;DHT22;20063;51.730;11.110;2023-04-03T03:05:08;0.30;99.90
33739;DHT22;20063;51.730;11.110;2023-04-03T03:07:33;0.30;99.90
33739;DHT22;20063;51.730;11.110;2023-04-03T03:09:59;0.30;99.90
33739;DHT22;20063;51.730;11.110;2023-04-03T03:12:25;0.30;99.90
33739;DHT22;20063;51.730;11.110;2023-04-03T03:14:51;0.20;99.90
33739;DHT22;20063;51.730;11.110;2023-04-03T03:17:17;0.20;99.90
33739;DHT22;20063;51.730;11.110;2023-04-03T03:19:43;0.30;99.90
33739;DHT22;20063;51.730;11.110;2023-04-03T03:22:08;0.20;99.90
33739;DHT22;20063;51.730;11.110;2023-04-03T03:24:34;0.20;99.90
33739;DHT22;20063;51.730;11.110;2023-04-03T03:27:00;0.10;99.90
33739;DHT22;20063;51.730;11.110;2023-04-03T03:29:26;0.00;99.90
33739;DHT22;20063;51.730;11.110;2023-04-03T03:31:51;0.00;99.90
33739;DHT22;20063;51.730;11.110;2023-04-03T03:34:17;0.00;99.90
33739;DHT22;20063;51.730;11.110;2023-04-03T03:36:42;0.00;99.90
33739;DHT22;20063;51.730;11.110;2023-04-03T03:39:08;0.00;99.90
33739;DHT22;20063;51.730;11.110;2023-04-03T03:41:34;0.00;99.90
33739;DHT22;20063;51.730;11.110;2023-04-03T03:44:00;-0.10;99.90
33739;DHT22;20063;51.730;11.110;2023-04-03T03:46:26;-0.10;99.90
33739;DHT22;20063;51.730;11.110;2023-04-03T03:48:52;-0.20;99.90
33739;DHT22;20063;51.730;11.110;2023-04-03T03:51:17;-0.20;99.90
33739;DHT22;20063;51.730;11.110;2023-04-03T03:53:43;-0.20;99.90
33739;DHT22;20063;51.730;11.110;2023-04-03T03:56:10;-0.20;99.90
33739;DHT22;20063;51.730;11.110;2023-04-03T03:58:36;-0.20;99.90
33739;DHT22;20063;51.730;11.110;2023-04-03T04:01:06;-0.20;99.90
33739;DHT22;20063;51.730;11.110;2023-04-03T04:03:32;-0.20;99.90
33739;DHT22;20063;51.730;11.110;2023-04-03T04:06:01;-0.20;99.90
33739;DHT22;20063;51.730;11.110;2023-04-03T04:08:26;-0.20;99.90
33739;DHT22;20063;51.730;11.110;2023-04-03T04:10:52;-0.20;99.90
33739;DHT22;20063;51.730;11.110;2023-04-03T04:13:18;-0.20;99.90
33739;DHT22;20063;51.730;11.110;2023-04-03T04:15:44;-0.30;99.90
33739;DHT22;20063;51.730;11.110;2023-04-03T04:18:09;-0.30;99.90
33739;DHT22;20063;51.730;11.110;2023-04-03T04:20:35;-0.30;99.90
33739;DHT22;20063;51.730;11.110;2023-04-03T04:23:00;-0.30;99.90
33739;DHT22;20063;51.730;11.110;2023-04-03T04:25:26;-0.30;99.90
33739;DHT22;20063;51.730;11.110;2023-04-03T04:27:52;-0.40;99.90
33739;DHT22;20063;51.730;11.110;2023-04-03T04:30:17;-0.40;99.90
33739;DHT22;20063;51.730;11.110;2023-04-03T04:32:43;-0.40;99.90
33739;DHT22;20063;51.730;11.110;2023-04-03T04:35:08;-0.40;99.90
33739;DHT22;20063;51.730;11.110;2023-04-03T04:37:35;-0.40;99.90
33739;DHT22;20063;51.730;11.110;2023-04-03T04:40:01;-0.50;99.90
33739;DHT22;20063;51.730;11.110;2023-04-03T04:42:27;-0.50;99.90
33739;DHT22;20063;51.730;11.110;2023-04-03T04:44:53;-0.50;99.90
33739;DHT22;20063;51.730;11.110;2023-04-03T04:47:18;-0.50;99.90
33739;DHT22;20063;51.730;11.110;2023-04-03T04:49:44;-0.50;99.90
33739;DHT22;20063;51.730;11.110;2023-04-03T04:52:13;-0.50;99.90
33739;DHT22;20063;51.730;11.110;2023-04-03T04:54:38;-0.60;99.90
33739;DHT22;20063;51.730;11.110;2023-04-03T04:57:04;-0.60;99.90
33739;DHT22;20063;51.730;11.110;2023-04-03T04:59:30;-0.60;99.90
33739;DHT22;20063;51.730;11.110;2023-04-03T05:01:55;-0.60;99.90
33739;DHT22;20063;51.730;11.110;2023-04-03T05:04:21;-0.60;99.90
33739;DHT22;20063;51.730;11.110;2023-04-03T05:06:46;-0.60;99.90
33739;DHT22;20063;51.730;11.110;2023-04-03T05:09:15;-0.60;99.90
33739;DHT22;20063;51.730;11.110;2023-04-03T05:11:41;-0.60;99.90
33739;DHT22;20063;51.730;11.110;2023-04-03T05:14:08;-0.60;99.90
33739;DHT22;20063;51.730;11.110;2023-04-03T05:16:33;-0.60;99.90
33739;DHT22;20063;51.730;11.110;2023-04-03T05:19:00;-0.50;99.90
33739;DHT22;20063;51.730;11.110;2023-04-03T05:21:25;-0.50;99.90
33739;DHT22;20063;51.730;11.110;2023-04-03T05:23:53;-0.50;99.90
33739;DHT22;20063;51.730;11.110;2023-04-03T05:26:18;-0.40;99.90
33739;DHT22;20063;51.730;11.110;2023-04-03T05:28:44;-0.50;99.90
33739;DHT22;20063;51.730;11.110;2023-04-03T05:31:09;-0.40;99.90
33739;DHT22;20063;51.730;11.110;2023-04-03T05:33:35;-0.40;99.90
33739;DHT22;20063;51.730;11.110;2023-04-03T05:36:06;-0.40;99.90
33739;DHT22;20063;51.730;11.110;2023-04-03T05:38:32;-0.30;99.90
33739;DHT22;20063;51.730;11.110;2023-04-03T05:40:58;-0.30;99.90
33739;DHT22;20063;51.730;11.110;2023-04-03T05:43:24;-0.20;99.90
33739;DHT22;20063;51.730;11.110;2023-04-03T05:45:51;-0.20;99.90
33739;DHT22;20063;51.730;11.110;2023-04-03T05:48:17;-0.20;99.90
33739;DHT22;20063;51.730;11.110;2023-04-03T05:50:42;-0.20;99.90
33739;DHT22;20063;51.730;11.110;2023-04-03T05:53:29;-0.20;99.90
33739;DHT22;20063;51.730;11.110;2023-04-03T05:55:56;-0.10;99.90
33739;DHT22;20063;51.730;11.110;2023-04-03T05:58:22;-0.10;99.90
33739;DHT22;20063;51.730;11.110;2023-04-03T06:00:47;-0.10;99.90
33739;DHT22;20063;51.730;11.110;2023-04-03T06:03:16;-0.10;99.90
33739;DHT22;20063;51.730;11.110;2023-04-03T06:05:43;-0.10;99.90
33739;DHT22;20063;51.730;11.110;2023-04-03T06:08:09;-0.10;99.90
33739;DHT22;20063;51.730;11.110;2023-04-03T06:10:36;-0.10;99.90
33739;DHT22;20063;51.730;11.110;2023-04-03T06:13:02;-0.10;99.90
33739;DHT22;20063;51.730;11.110;2023-04-03T06:15:27;-0.10;99.90
33739;DHT22;20063;51.730;11.110;2023-04-03T06:17:53;-0.10;99.90
33739;DHT22;20063;51.730;11.110;2023-04-03T06:20:20;-0.10;99.90
33739;DHT22;20063;51.730;11.110;2023-04-03T06:22:47;-0.10;99.90
33739;DHT22;20063;51.730;11.110;2023-04-03T06:25:16;0.00;99.90
33739;DHT22;20063;51.730;11.110;2023-04-03T06:27:44;0.00;99.90
33739;DHT22;20063;51.730;11.110;2023-04-03T06:30:12;0.00;99.90
33739;DHT22;20063;51.730;11.110;2023-04-03T06:32:38;0.00;99.90
33739;DHT22;20063;51.730;11.110;2023-04-03T06:35:05;0.10;99.90
33739;DHT22;20063;51.730;11.110;2023-04-03T06:37:30;0.10;99.90
33739;DHT22;20063;51.730;11.110;2023-04-03T06:39:57;0.10;99.90
33739;DHT22;20063;51.730;11.110;2023-04-03T06:42:23;0.10;99.90
33739;DHT22;20063;51.730;11.110;2023-04-03T06:44:49;0.10;99.90
33739;DHT22;20063;51.730;11.110;2023-04-03T06:47:16;0.20;99.90
33739;DHT22;20063;51.730;11.110;2023-04-03T06:49:42;0.20;99.90
33739;DHT22;20063;51.730;11.110;2023-04-03T06:52:08;0.30;99.90
33739;DHT22;20063;51.730;11.110;2023-04-03T06:54:34;0.30;99.90
33739;DHT22;20063;51.730;11.110;2023-04-03T06:57:00;0.30;99.90
33739;DHT22;20063;51.730;11.110;2023-04-03T06:59:26;0.30;99.90
33739;DHT22;20063;51.730;11.110;2023-04-03T07:01:51;0.40;99.90
33739;DHT22;20063;51.730;11.110;2023-04-03T07:04:17;0.40;99.90
33739;DHT22;20063;51.730;11.110;2023-04-03T07:06:46;0.50;99.90
33739;DHT22;20063;51.730;11.110;2023-04-03T07:09:12;0.50;99.90
33739;DHT22;20063;51.730;11.110;2023-04-03T07:11:39;0.60;99.90
33739;DHT22;20063;51.730;11.110;2023-04-03T07:14:05;0.60;99.90
33739;DHT22;20063;51.730;11.110;2023-04-03T07:16:33;0.70;99.90
33739;DHT22;20063;51.730;11.110;2023-04-03T07:19:00;0.70;99.90
33739;DHT22;20063;51.730;11.110;2023-04-03T07:21:25;0.70;99.90
33739;DHT22;20063;51.730;11.110;2023-04-03T07:23:51;0.70;99.90
33739;DHT22;20063;51.730;11.110;2023-04-03T07:26:16;0.80;99.90
33739;DHT22;20063;51.730;11.110;2023-04-03T07:28:42;0.80;99.90
33739;DHT22;20063;51.730;11.110;2023-04-03T07:31:12;0.90;99.90
33739;DHT22;20063;51.730;11.110;2023-04-03T07:33:39;1.00;99.90
33739;DHT22;20063;51.730;11.110;2023-04-03T07:36:05;1.00;99.90
33739;DHT22;20063;51.730;11.110;2023-04-03T07:38:33;1.00;99.90
33739;DHT22;20063;51.730;11.110;2023-04-03T07:40:58;1.10;99.90
33739;DHT22;20063;51.730;11.110;2023-04-03T07:43:24;1.20;99.90
33739;DHT22;20063;51.730;11.110;2023-04-03T07:45:50;1.30;99.90
33739;DHT22;20063;51.730;11.110;2023-04-03T07:48:24;1.40;99.90
33739;DHT22;20063;51.730;11.110;2023-04-03T07:50:51;1.40;99.90
33739;DHT22;20063;51.730;11.110;2023-04-03T07:53:18;1.50;99.90
33739;DHT22;20063;51.730;11.110;2023-04-03T07:55:47;1.50;99.90
33739;DHT22;20063;51.730;11.110;2023-04-03T07:58:15;1.60;99.90
33739;DHT22;20063;51.730;11.110;2023-04-03T08:00:42;1.60;99.90
33739;DHT22;20063;51.730;11.110;2023-04-03T08:03:10;1.60;99.90
33739;DHT22;20063;51.730;11.110;2023-04-03T08:05:45;1.70;99.90
33739;DHT22;20063;51.730;11.110;2023-04-03T08:08:12;1.70;99.90
33739;DHT22;20063;51.730;11.110;2023-04-03T08:10:41;1.70;99.90
33739;DHT22;20063;51.730;11.110;2023-04-03T08:13:08;1.70;99.90
33739;DHT22;20063;51.730;11.110;2023-04-03T08:15:34;1.70;99.90
33739;DHT22;20063;51.730;11.110;2023-04-03T08:18:00;1.70;99.90
33739;DHT22;20063;51.730;11.110;2023-04-03T08:20:26;1.70;99.90
33739;DHT22;20063;51.730;11.110;2023-04-03T08:22:52;1.70;99.90
33739;DHT22;20063;51.730;11.110;2023-04-03T08:25:18;1.70;99.90
33739;DHT22;20063;51.730;11.110;2023-04-03T08:27:44;1.80;99.90
33739;DHT22;20063;51.730;11.110;2023-04-03T08:30:10;1.80;99.90
33739;DHT22;20063;51.730;11.110;2023-04-03T08:32:36;1.90;99.90
33739;DHT22;20063;51.730;11.110;2023-04-03T08:35:03;1.80;99.90
33739;DHT22;20063;51.730;11.110;2023-04-03T08:37:29;1.90;99.90
33739;DHT22;20063;51.730;11.110;2023-04-03T08:39:55;1.90;99.90
33739;DHT22;20063;51.730;11.110;2023-04-03T08:42:45;1.90;99.90
33739;DHT22;20063;51.730;11.110;2023-04-03T08:45:42;1.90;99.90
33739;DHT22;20063;51.730;11.110;2023-04-03T08:48:20;1.90;99.90
33739;DHT22;20063;51.730;11.110;2023-04-03T08:50:59;1.90;99.90
33739;DHT22;20063;51.730;11.110;2023-04-03T08:53:29;2.00;99.90
33739;DHT22;20063;51.730;11.110;2023-04-03T08:55:58;2.00;99.90
33739;DHT22;20063;51.730;11.110;2023-04-03T08:58:30;2.00;99.90
33739;DHT22;20063;51.730;11.110;2023-04-03T09:01:21;2.10;99.90
33739;DHT22;20063;51.730;11.110;2023-04-03T09:03:48;2.10;99.90
33739;DHT22;20063;51.730;11.110;2023-04-03T09:06:18;2.20;99.90
33739;DHT22;20063;51.730;11.110;2023-04-03T09:11:21;2.30;99.90
33739;DHT22;20063;51.730;11.110;2023-04-03T09:14:11;2.30;99.90
33739;DHT22;20063;51.730;11.110;2023-04-03T09:16:43;2.40;99.90
33739;DHT22;20063;51.730;11.110;2023-04-03T09:24:28;2.50;99.90
33739;DHT22;20063;51.730;11.110;2023-04-03T09:27:03;2.60;99.90
33739;DHT22;20063;51.730;11.110;2023-04-03T09:29:30;2.60;99.90
33739;DHT22;20063;51.730;11.110;2023-04-03T09:32:21;2.70;99.90
33739;DHT22;20063;51.730;11.110;2023-04-03T09:34:49;2.80;99.90
33739;DHT22;20063;51.730;11.110;2023-04-03T09:37:43;2.90;99.90
33739;DHT22;20063;51.730;11.110;2023-04-03T09:40:35;3.00;99.90
33739;DHT22;20063;51.730;11.110;2023-04-03T09:43:23;3.00;99.90
33739;DHT22;20063;51.730;11.110;2023-04-03T09:45:49;3.00;99.90
33739;DHT22;20063;51.730;11.110;2023-04-03T09:48:18;3.00;99.90
33739;DHT22;20063;51.730;11.110;2023-04-03T09:56:18;3.30;99.90
33739;DHT22;20063;51.730;11.110;2023-04-03T10:01:28;3.40;99.90
33739;DHT22;20063;51.730;11.110;2023-04-03T10:06:38;3.30;99.90
33739;DHT22;20063;51.730;11.110;2023-04-03T10:12:12;3.20;99.90
33739;DHT22;20063;51.730;11.110;2023-04-03T10:14:58;3.20;99.90
33739;DHT22;20063;51.730;11.110;2023-04-03T10:20:37;3.40;99.90
33739;DHT22;20063;51.730;11.110;2023-04-03T10:28:17;3.60;99.90
33739;DHT22;20063;51.730;11.110;2023-04-03T10:30:58;3.70;99.90
33739;DHT22;20063;51.730;11.110;2023-04-03T10:36:10;3.70;99.90
33739;DHT22;20063;51.730;11.110;2023-04-03T10:39:03;3.70;99.90
33739;DHT22;20063;51.730;11.110;2023-04-03T10:44:28;3.70;99.90
33739;DHT22;20063;51.730;11.110;2023-04-03T10:47:24;3.70;99.90
33739;DHT22;20063;51.730;11.110;2023-04-03T10:52:45;3.50;99.90
33739;DHT22;20063;51.730;11.110;2023-04-03T10:55:36;3.50;99.90
33739;DHT22;20063;51.730;11.110;2023-04-03T10:58:03;3.40;99.90
33739;DHT22;20063;51.730;11.110;2023-04-03T11:03:24;3.40;99.90
33739;DHT22;20063;51.730;11.110;2023-04-03T11:05:53;3.50;99.90
33739;DHT22;20063;51.730;11.110;2023-04-03T11:08:43;3.50;99.90
33739;DHT22;20063;51.730;11.110;2023-04-03T11:11:19;3.60;99.90
33739;DHT22;20063;51.730;11.110;2023-04-03T11:14:05;3.60;99.90
33739;DHT22;20063;51.730;11.110;2023-04-03T11:16:39;3.70;99.90
33739;DHT22;20063;51.730;11.110;2023-04-03T11:19:35;3.70;99.90
33739;DHT22;20063;51.730;11.110;2023-04-03T11:22:23;3.90;99.90
33739;DHT22;20063;51.730;11.110;2023-04-03T11:27:48;4.00;99.90
33739;DHT22;20063;51.730;11.110;2023-04-03T11:30:20;4.00;99.90
33739;DHT22;20063;51.730;11.110;2023-04-03T11:33:02;4.00;99.90
33739;DHT22;20063;51.730;11.110;2023-04-03T11:35:30;4.20;99.90
33739;DHT22;20063;51.730;11.110;2023-04-03T11:37:57;4.30;99.90
33739;DHT22;20063;51.730;11.110;2023-04-03T11:40:29;4.40;99.90
33739;DHT22;20063;51.730;11.110;2023-04-03T11:43:07;4.50;99.90
33739;DHT22;20063;51.730;11.110;2023-04-03T11:53:46;4.40;99.90
33739;DHT22;20063;51.730;11.110;2023-04-03T12:01:47;4.20;99.90
33739;DHT22;20063;51.730;11.110;2023-04-03T12:04:18;4.20;99.90
33739;DHT22;20063;51.730;11.110;2023-04-03T12:09:29;4.10;99.90
33739;DHT22;20063;51.730;11.110;2023-04-03T12:11:58;4.10;99.90
33739;DHT22;20063;51.730;11.110;2023-04-03T12:14:25;4.10;99.90
33739;DHT22;20063;51.730;11.110;2023-04-03T12:16:56;4.10;99.90
33739;DHT22;20063;51.730;11.110;2023-04-03T12:19:36;4.10;99.90
33739;DHT22;20063;51.730;11.110;2023-04-03T12:22:08;4.30;99.90
33739;DHT22;20063;51.730;11.110;2023-04-03T12:24:48;4.40;99.90
33739;DHT22;20063;51.730;11.110;2023-04-03T12:27:43;4.40;99.90
33739;DHT22;20063;51.730;11.110;2023-04-03T12:30:25;4.40;99.90
33739;DHT22;20063;51.730;11.110;2023-04-03T12:35:43;4.30;99.90
33739;DHT22;20063;51.730;11.110;2023-04-03T12:38:41;4.30;99.90
33739;DHT22;20063;51.730;11.110;2023-04-03T12:41:21;4.20;99.90
33739;DHT22;20063;51.730;11.110;2023-04-03T12:47:01;4.10;99.90
33739;DHT22;20063;51.730;11.110;2023-04-03T12:49:35;4.20;99.90
33739;DHT22;20063;51.730;11.110;2023-04-03T12:52:06;4.20;99.90
33739;DHT22;20063;51.730;11.110;2023-04-03T12:54:39;4.10;99.90
33739;DHT22;20063;51.730;11.110;2023-04-03T12:57:21;4.20;99.90
33739;DHT22;20063;51.730;11.110;2023-04-03T12:59:47;4.30;99.90
33739;DHT22;20063;51.730;11.110;2023-04-03T13:02:32;4.30;99.90
33739;DHT22;20063;51.730;11.110;2023-04-03T13:05:08;4.30;99.90
33739;DHT22;20063;51.730;11.110;2023-04-03T13:07:37;4.30;99.90
33739;DHT22;20063;51.730;11.110;2023-04-03T13:12:33;4.50;99.90
33739;DHT22;20063;51.730;11.110;2023-04-03T13:15:02;4.50;99.90
33739;DHT22;20063;51.730;11.110;2023-04-03T13:17:30;4.50;99.90
33739;DHT22;20063;51.730;11.110;2023-04-03T13:20:20;4.50;99.90
33739;DHT22;20063;51.730;11.110;2023-04-03T13:25:20;4.40;99.90
33739;DHT22;20063;51.730;11.110;2023-04-03T13:27:46;4.50;99.90
33739;DHT22;20063;51.730;11.110;2023-04-03T13:30:40;4.50;99.90
33739;DHT22;20063;51.730;11.110;2023-04-03T13:33:20;4.50;99.90
33739;DHT22;20063;51.730;11.110;2023-04-03T13:35:46;4.50;99.90
33739;DHT22;20063;51.730;11.110;2023-04-03T13:40:51;4.40;99.90
33739;DHT22;20063;51.730;11.110;2023-04-03T13:43:23;4.50;99.90
33739;DHT22;20063;51.730;11.110;2023-04-03T13:45:59;4.50;99.90
33739;DHT22;20063;51.730;11.110;2023-04-03T13:53:47;4.70;99.90
33739;DHT22;20063;51.730;11.110;2023-04-03T13:56:40;4.70;99.90
33739;DHT22;20063;51.730;11.110;2023-04-03T14:01:46;4.80;99.90
33739;DHT22;20063;51.730;11.110;2023-04-03T14:04:26;4.80;99.90
33739;DHT22;20063;51.730;11.110;2023-04-03T14:06:53;4.80;99.90
33739;DHT22;20063;51.730;11.110;2023-04-03T14:09:21;4.80;99.90
33739;DHT22;20063;51.730;11.110;2023-04-03T14:11:50;4.80;99.90
33739;DHT22;20063;51.730;11.110;2023-04-03T14:14:27;4.70;99.90
33739;DHT22;20063;51.730;11.110;2023-04-03T14:16:58;4.70;99.90
33739;DHT22;20063;51.730;11.110;2023-04-03T14:19:44;4.70;99.90
33739;DHT22;20063;51.730;11.110;2023-04-03T14:24:44;4.70;99.90
33739;DHT22;20063;51.730;11.110;2023-04-03T14:27:35;4.70;99.90
33739;DHT22;20063;51.730;11.110;2023-04-03T14:30:02;4.70;99.90
33739;DHT22;20063;51.730;11.110;2023-04-03T14:32:29;4.60;99.90
33739;DHT22;20063;51.730;11.110;2023-04-03T14:34:55;4.60;99.90
33739;DHT22;20063;51.730;11.110;2023-04-03T14:37:24;4.60;99.90
33739;DHT22;20063;51.730;11.110;2023-04-03T14:39:53;4.60;99.90
33739;DHT22;20063;51.730;11.110;2023-04-03T14:42:24;4.50;99.90
33739;DHT22;20063;51.730;11.110;2023-04-03T14:44:51;4.50;99.90
33739;DHT22;20063;51.730;11.110;2023-04-03T14:47:20;4.50;99.90
33739;DHT22;20063;51.730;11.110;2023-04-03T14:49:47;4.50;99.90
33739;DHT22;20063;51.730;11.110;2023-04-03T14:52:31;4.50;99.90
33739;DHT22;20063;51.730;11.110;2023-04-03T14:54:57;4.50;99.90
33739;DHT22;20063;51.730;11.110;2023-04-03T14:57:27;4.50;99.90
33739;DHT22;20063;51.730;11.110;2023-04-03T14:59:53;4.50;99.90
33739;DHT22;20063;51.730;11.110;2023-04-03T15:02:33;4.50;99.90
33739;DHT22;20063;51.730;11.110;2023-04-03T15:05:01;4.50;99.90
33739;DHT22;20063;51.730;11.110;2023-04-03T15:07:31;4.50;99.90
33739;DHT22;20063;51.730;11.110;2023-04-03T15:09:58;4.50;99.90
33739;DHT22;20063;51.730;11.110;2023-04-03T15:12:24;4.50;99.90
33739;DHT22;20063;51.730;11.110;2023-04-03T15:14:50;4.50;99.90
33739;DHT22;20063;51.730;11.110;2023-04-03T15:17:18;4.60;99.90
33739;DHT22;20063;51.730;11.110;2023-04-03T15:19:45;4.50;99.90
33739;DHT22;20063;51.730;11.110;2023-04-03T15:22:18;4.60;99.90
33739;DHT22;20063;51.730;11.110;2023-04-03T15:24:44;4.60;99.90
33739;DHT22;20063;51.730;11.110;2023-04-03T15:27:11;4.50;99.90
33739;DHT22;20063;51.730;11.110;2023-04-03T15:29:45;4.50;99.90
33739;DHT22;20063;51.730;11.110;2023-04-03T15:32:12;4.50;99.90
33739;DHT22;20063;51.730;11.110;2023-04-03T15:34:38;4.50;99.90
33739;DHT22;20063;51.730;11.110;2023-04-03T15:37:05;4.50;99.90
33739;DHT22;20063;51.730;11.110;2023-04-03T15:39:31;4.50;99.90
33739;DHT22;20063;51.730;11.110;2023-04-03T15:41:57;4.50;99.90
33739;DHT22;20063;51.730;11.110;2023-04-03T15:44:31;4.40;99.90
33739;DHT22;20063;51.730;11.110;2023-04-03T15:46:58;4.40;99.90
33739;DHT22;20063;51.730;11.110;2023-04-03T15:49:24;4.50;99.90
33739;DHT22;20063;51.730;11.110;2023-04-03T15:51:51;4.50;99.90
33739;DHT22;20063;51.730;11.110;2023-04-03T15:54:17;4.50;99.90
33739;DHT22;20063;51.730;11.110;2023-04-03T15:56:43;4.50;99.90
33739;DHT22;20063;51.730;11.110;2023-04-03T15:59:09;4.50;99.90
33739;DHT22;20063;51.730;11.110;2023-04-03T16:01:34;4.50;99.90
33739;DHT22;20063;51.730;11.110;2023-04-03T16:04:02;4.50;99.90
33739;DHT22;20063;51.730;11.110;2023-04-03T16:06:28;4.50;99.90
33739;DHT22;20063;51.730;11.110;2023-04-03T16:08:56;4.50;99.90
33739;DHT22;20063;51.730;11.110;2023-04-03T16:11:24;4.50;99.90
33739;DHT22;20063;51.730;11.110;2023-04-03T16:13:51;4.50;99.90
33739;DHT22;20063;51.730;11.110;2023-04-03T16:16:16;4.50;99.90
33739;DHT22;20063;51.730;11.110;2023-04-03T16:18:42;4.50;99.90
33739;DHT22;20063;51.730;11.110;2023-04-03T16:21:08;4.40;99.90
33739;DHT22;20063;51.730;11.110;2023-04-03T16:23:35;4.40;99.90
33739;DHT22;20063;51.730;11.110;2023-04-03T16:26:01;4.40;99.90
33739;DHT22;20063;51.730;11.110;2023-04-03T16:28:27;4.50;99.90
33739;DHT22;20063;51.730;11.110;2023-04-03T16:30:53;4.40;99.90
33739;DHT22;20063;51.730;11.110;2023-04-03T16:33:18;4.40;99.90
33739;DHT22;20063;51.730;11.110;2023-04-03T16:35:46;4.40;99.90
33739;DHT22;20063;51.730;11.110;2023-04-03T16:38:16;4.40;99.90
33739;DHT22;20063;51.730;11.110;2023-04-03T16:40:44;4.40;99.90
33739;DHT22;20063;51.730;11.110;2023-04-03T16:43:10;4.40;99.90
33739;DHT22;20063;51.730;11.110;2023-04-03T16:45:36;4.40;99.90
33739;DHT22;20063;51.730;11.110;2023-04-03T16:48:02;4.40;99.90
33739;DHT22;20063;51.730;11.110;2023-04-03T16:50:28;4.30;99.90
33739;DHT22;20063;51.730;11.110;2023-04-03T16:52:53;4.30;99.90
33739;DHT22;20063;51.730;11.110;2023-04-03T16:55:19;4.30;99.90
33739;DHT22;20063;51.730;11.110;2023-04-03T16:57:46;4.30;99.90
33739;DHT22;20063;51.730;11.110;2023-04-03T17:00:12;4.30;99.90
33739;DHT22;20063;51.730;11.110;2023-04-03T17:02:39;4.20;99.90
33739;DHT22;20063;51.730;11.110;2023-04-03T17:05:05;4.20;99.90
33739;DHT22;20063;51.730;11.110;2023-04-03T17:07:31;4.20;99.90
33739;DHT22;20063;51.730;11.110;2023-04-03T17:09:56;4.20;99.90
33739;DHT22;20063;51.730;11.110;2023-04-03T17:12:22;4.10;99.90